• Join FlightAware (Why Join?)
  • Login
  • US Flag 
12:45AM EDT


 

Airport Tracker/Info


-or-


 

Live Flight TrackerFlight Track Log ✈ ASQ4209 ✈ 07-Jul-2013 ✈ KBTR - KIAH

Flight Track Log - Related Links

Times and Time Zones

All times are in EDT time to prevent confusion due to time zone crossing. See the ASQ4209 flight status page for this flight to view local times or setup timezone preferences in your user account.

Time Position Orientation Groundspeed Altitude Reporting Facility
EDT Latitude Longitude Course Direction KTS MPH feet Rate Location/Type
02:28PM 30.4858 -91.2139 236° Southwest 213 245 3,300  Level Houston Center
02:29PM 30.4803 -91.2956 266° West 216 249 6,500 2,760 Climbing Houston Center
02:30PM 30.4678 -91.5275 257° West  Level FlightAware Approximate
02:30PM 30.4833 -91.3683 273° West 225 259 9,100  Level Houston Center
02:31PM 30.4475 -91.6265 254° West  Level FlightAware Approximate
02:31PM 30.4608 -91.4414 250° West 243 280 11,300  Level Houston Center
02:32PM 30.4084 -91.7145 227° Southwest  Level FlightAware Approximate
02:32PM 30.4222 -91.5144 239° Southwest 263 303 12,900  Level Houston Center
02:33PM 30.3797 -91.5994 240° Southwest 295 339 14,300 1,080 Climbing Houston Center
02:34PM 30.3358 -91.6953 242° Southwest 328 377 15,200 660 Climbing Houston Center
02:35PM 30.3253 -91.8244 265° West 375 432 15,700 720 Climbing Houston Center
02:36PM 30.2683 -91.9336 239° Southwest 395 455 16,700 960 Climbing Houston Center
02:37PM 30.2014 -92.0508 237° Southwest 398 458 17,800 1,020 Climbing Houston Center
02:38PM 30.1972 -92.1789 268° West 397 457 18,900 1,020 Climbing Houston Center
02:39PM 30.1906 -92.3092 267° West 405 466 20,000 1,140 Climbing Houston Center
02:40PM 30.1769 -92.4661 264° West 410 472 21,300 960 Climbing Houston Center
02:41PM 30.1339 -92.5900 248° West 414 476 22,000 240 Climbing Houston Center
02:42PM 30.0858 -92.7189 247° West 431 496 21,900  Descending Houston Center
02:43PM 30.0392 -92.8456 247° West 430 495 22,000  Climbing Houston Center
02:44PM 29.9925 -92.9697 247° West 423 487 22,000  Level Houston Center
02:45PM 29.9469 -93.0925 247° West 417 480 22,000  Level Houston Center
02:46PM 29.9011 -93.2161 247° West 417 480 22,000  Level Houston Center
02:47PM 29.8453 -93.3628 246° West 416 479 22,000  Level Houston Center
02:48PM 29.7958 -93.4875 245° Southwest 422 486 22,000 -720 Level Houston Center
02:49PM 29.7203 -93.5997 232° Southwest 441 507 20,500 -1,500 Descending Houston Center
02:50PM 29.6458 -93.7075 232° Southwest 434 499 18,900 -1,500 Descending Houston Center
02:52PM 29.5728 -93.8131 232° Southwest 426 490 17,400 -1,380 Descending Houston Center
02:53PM 29.5194 -93.9481 246° West 414 476 16,100 -720 Descending Houston Center
02:54PM 29.5233 -94.0875 272° West 419 482 16,000 -180 Descending Houston Center
02:55PM 29.5283 -94.2136 273° West 407 468 15,800 -1,380 Descending Houston Center
02:56PM 29.5328 -94.3319 273° West 378 435 13,200 -1,800 Descending Houston Center
02:57PM 29.5719 -94.4350 294° West 357 411 12,200 -1,260 Descending Houston Center
02:58PM 29.6147 -94.5364 296° West 355 409 10,600 -1,080 Descending Houston Center
02:59PM 29.6569 -94.6339 297° West 344 396 10,000 -240 Descending Houston Center
03:00PM 29.7078 -94.7525 296° West 346 398 10,100  Climbing Houston Center
03:01PM 29.7497 -94.8514 296° West 345 397 10,100 -240 Level Houston Center
03:02PM 29.7897 -94.9467 296° West 336 387 9,700 -1,080 Descending Houston Center
03:03PM 29.8253 -95.0300 296° West 302 348 7,900 -1,620 Descending Houston Center
03:04PM 29.8669 -95.1292 296° West 291 335 6,400 -900 Descending Houston Center
03:05PM 29.8992 -95.2103 295° West 284 327 6,100 -180 Descending Houston Center
03:06PM 29.8997 -95.2997 270° West 283 326 6,100  Level Houston Center
03:07PM 29.9008 -95.3903 271° West 284 327 6,100  Level Houston Center
03:08PM 29.9011 -95.4817 270° West 287 330 6,100 -420 Level Houston Center
03:09PM 29.9008 -95.5806 270° West 261 300 5,300 -1,200 Descending Houston Center
03:10PM 29.9578 -95.6092 336° Northwest 253 291 3,700 -1,080 Descending Houston Center
03:11PM 29.9914 -95.5547 55° Northeast 216 249 2,900 -540 Descending Houston Center
03:12PM 29.9931 -95.5056 88° East 216 249 2,600 -360 Descending Houston Center